sensor_id;sensor_type;location;lat;lon;timestamp;pressure;altitude;pressure_sealevel;temperature;humidity
16100;BME280;8154;50.830;12.082;2023-01-23T00:01:11;100902.97;;;22.59;31.61
16100;BME280;8154;50.830;12.082;2023-01-23T00:03:37;100895.97;;;22.58;31.66
16100;BME280;8154;50.830;12.082;2023-01-23T00:06:12;100898.31;;;22.61;31.60
16100;BME280;8154;50.830;12.082;2023-01-23T00:08:40;100895.66;;;22.61;31.54
16100;BME280;8154;50.830;12.082;2023-01-23T00:11:13;100891.63;;;22.57;31.54
16100;BME280;8154;50.830;12.082;2023-01-23T00:13:40;100886.59;;;22.54;31.69
16100;BME280;8154;50.830;12.082;2023-01-23T00:16:09;100891.94;;;22.54;31.57
16100;BME280;8154;50.830;12.082;2023-01-23T00:18:36;100899.06;;;22.54;31.70
16100;BME280;8154;50.830;12.082;2023-01-23T00:21:13;100893.59;;;22.55;31.59
16100;BME280;8154;50.830;12.082;2023-01-23T00:23:44;100900.63;;;22.56;31.61
16100;BME280;8154;50.830;12.082;2023-01-23T00:26:13;100900.31;;;22.59;31.52
16100;BME280;8154;50.830;12.082;2023-01-23T01:32:56;100972.19;;;22.51;31.62
16100;BME280;8154;50.830;12.082;2023-01-23T01:35:22;100970.22;;;22.53;31.51
16100;BME280;8154;50.830;12.082;2023-01-23T01:37:49;100977.19;;;22.54;31.65
16100;BME280;8154;50.830;12.082;2023-01-23T01:40:22;100979.88;;;22.54;31.59
16100;BME280;8154;50.830;12.082;2023-01-23T01:42:57;100982.53;;;22.54;31.61
16100;BME280;8154;50.830;12.082;2023-01-23T01:53:45;100984.50;;;22.52;31.59
16100;BME280;8154;50.830;12.082;2023-01-23T01:56:13;100980.56;;;22.56;31.56
16100;BME280;8154;50.830;12.082;2023-01-23T01:58:41;100986.59;;;22.58;31.38
16100;BME280;8154;50.830;12.082;2023-01-23T02:01:10;100983.06;;;22.58;31.38
16100;BME280;8154;50.830;12.082;2023-01-23T02:03:36;100986.34;;;22.52;31.48
16100;BME280;8154;50.830;12.082;2023-01-23T02:06:03;100987.16;;;22.52;31.61
16100;BME280;8154;50.830;12.082;2023-01-23T02:11:13;100978.63;;;22.49;31.58
16100;BME280;8154;50.830;12.082;2023-01-23T02:13:41;100996.84;;;22.53;31.69
16100;BME280;8154;50.830;12.082;2023-01-23T02:16:09;100997.66;;;22.54;31.40
16100;BME280;8154;50.830;12.082;2023-01-23T02:18:38;100995.00;;;22.54;31.62
16100;BME280;8154;50.830;12.082;2023-01-23T03:22:52;101022.50;;;22.54;31.42
16100;BME280;8154;50.830;12.082;2023-01-23T03:25:18;101012.00;;;22.53;31.60
16100;BME280;8154;50.830;12.082;2023-01-23T03:27:44;101009.88;;;22.56;31.52
16100;BME280;8154;50.830;12.082;2023-01-23T03:30:12;101016.72;;;22.59;31.40
16100;BME280;8154;50.830;12.082;2023-01-23T03:32:39;101005.50;;;22.55;31.51
16100;BME280;8154;50.830;12.082;2023-01-23T03:35:08;101012.38;;;22.58;31.58
16100;BME280;8154;50.830;12.082;2023-01-23T03:37:42;101006.19;;;22.57;31.41
16100;BME280;8154;50.830;12.082;2023-01-23T03:40:19;101015.59;;;22.61;31.38
16100;BME280;8154;50.830;12.082;2023-01-23T03:43:24;101006.06;;;22.59;31.42
16100;BME280;8154;50.830;12.082;2023-01-23T03:45:50;101002.56;;;22.58;31.26
16100;BME280;8154;50.830;12.082;2023-01-23T03:48:16;101009.03;;;22.56;31.45
16100;BME280;8154;50.830;12.082;2023-01-23T03:50:42;101006.06;;;22.59;31.37
16100;BME280;8154;50.830;12.082;2023-01-23T03:53:08;101009.41;;;22.61;31.42
16100;BME280;8154;50.830;12.082;2023-01-23T03:55:36;101005.38;;;22.57;31.32
16100;BME280;8154;50.830;12.082;2023-01-23T03:58:02;101008.56;;;22.60;31.34
16100;BME280;8154;50.830;12.082;2023-01-23T04:00:28;101001.72;;;22.58;31.58
16100;BME280;8154;50.830;12.082;2023-01-23T04:02:54;101002.09;;;22.63;31.34
16100;BME280;8154;50.830;12.082;2023-01-23T04:05:20;101007.59;;;22.61;31.36
16100;BME280;8154;50.830;12.082;2023-01-23T04:07:46;101009.09;;;22.64;31.33
16100;BME280;8154;50.830;12.082;2023-01-23T04:10:13;101007.13;;;22.66;31.31
16100;BME280;8154;50.830;12.082;2023-01-23T04:12:41;101007.44;;;22.63;31.34
16100;BME280;8154;50.830;12.082;2023-01-23T04:15:08;101008.25;;;22.63;31.35
16100;BME280;8154;50.830;12.082;2023-01-23T04:17:34;101012.63;;;22.64;31.20
16100;BME280;8154;50.830;12.082;2023-01-23T04:20:00;101013.88;;;22.60;31.40
16100;BME280;8154;50.830;12.082;2023-01-23T05:24:00;101073.44;;;22.51;31.40
16100;BME280;8154;50.830;12.082;2023-01-23T05:26:27;101085.34;;;22.57;31.49
16100;BME280;8154;50.830;12.082;2023-01-23T05:28:53;101085.19;;;22.58;31.34
16100;BME280;8154;50.830;12.082;2023-01-23T05:31:19;101085.03;;;22.60;31.64
16100;BME280;8154;50.830;12.082;2023-01-23T05:33:45;101077.84;;;22.60;31.36
16100;BME280;8154;50.830;12.082;2023-01-23T05:36:11;101091.88;;;22.62;31.33
16100;BME280;8154;50.830;12.082;2023-01-23T05:38:37;101093.03;;;22.60;31.38
16100;BME280;8154;50.830;12.082;2023-01-23T05:41:03;101095.53;;;22.61;31.23
16100;BME280;8154;50.830;12.082;2023-01-23T05:43:29;101096.50;;;22.60;31.24
16100;BME280;8154;50.830;12.082;2023-01-23T05:45:58;101097.34;;;22.61;31.32
16100;BME280;8154;50.830;12.082;2023-01-23T05:48:25;101094.16;;;22.57;31.31
16100;BME280;8154;50.830;12.082;2023-01-23T05:50:51;101088.50;;;22.60;31.47
16100;BME280;8154;50.830;12.082;2023-01-23T05:53:17;101091.88;;;22.62;31.30
16100;BME280;8154;50.830;12.082;2023-01-23T05:55:43;101096.59;;;22.68;31.31
16100;BME280;8154;50.830;12.082;2023-01-23T05:58:09;101093.25;;;22.66;31.33
16100;BME280;8154;50.830;12.082;2023-01-23T06:00:35;101093.09;;;22.68;31.25
16100;BME280;8154;50.830;12.082;2023-01-23T06:03:02;101093.25;;;22.66;31.13
16100;BME280;8154;50.830;12.082;2023-01-23T06:05:28;101096.06;;;22.65;31.29
16100;BME280;8154;50.830;12.082;2023-01-23T06:07:54;101096.06;;;22.65;31.35
16100;BME280;8154;50.830;12.082;2023-01-23T06:10:20;101106.41;;;22.68;31.17
16100;BME280;8154;50.830;12.082;2023-01-23T06:12:46;101106.41;;;22.68;31.23
16100;BME280;8154;50.830;12.082;2023-01-23T06:15:13;101110.31;;;22.73;31.33
16100;BME280;8154;50.830;12.082;2023-01-23T06:17:39;101114.09;;;22.71;31.24
16100;BME280;8154;50.830;12.082;2023-01-23T06:20:06;101115.66;;;22.73;31.33
16100;BME280;8154;50.830;12.082;2023-01-23T08:25:09;101254.44;;;22.90;31.13
16100;BME280;8154;50.830;12.082;2023-01-23T08:27:35;101259.47;;;22.93;30.87
16100;BME280;8154;50.830;12.082;2023-01-23T08:30:06;101262.53;;;22.98;30.99
16100;BME280;8154;50.830;12.082;2023-01-23T08:32:34;101264.25;;;22.99;31.08
16100;BME280;8154;50.830;12.082;2023-01-23T08:35:01;101257.22;;;22.98;30.90
16100;BME280;8154;50.830;12.082;2023-01-23T08:37:29;101258.06;;;22.98;30.92
16100;BME280;8154;50.830;12.082;2023-01-23T08:39:55;101264.25;;;22.99;31.01
16100;BME280;8154;50.830;12.082;2023-01-23T08:42:21;101252.72;;;22.98;30.93
16100;BME280;8154;50.830;12.082;2023-01-23T08:44:47;101252.03;;;22.96;31.08
16100;BME280;8154;50.830;12.082;2023-01-23T08:47:14;101248.53;;;22.96;31.03
16100;BME280;8154;50.830;12.082;2023-01-23T08:49:39;101247.09;;;23.01;31.06
16100;BME280;8154;50.830;12.082;2023-01-23T08:52:06;101255.78;;;23.03;30.96
16100;BME280;8154;50.830;12.082;2023-01-23T08:54:32;101252.13;;;23.04;30.89
16100;BME280;8154;50.830;12.082;2023-01-23T08:56:58;101258.00;;;23.08;30.84
16100;BME280;8154;50.830;12.082;2023-01-23T08:59:25;101255.50;;;23.06;30.87
16100;BME280;8154;50.830;12.082;2023-01-23T09:01:51;101260.69;;;23.08;30.83
16100;BME280;8154;50.830;12.082;2023-01-23T09:04:17;101253.50;;;23.08;30.81
16100;BME280;8154;50.830;12.082;2023-01-23T09:06:43;101265.31;;;23.06;30.84
16100;BME280;8154;50.830;12.082;2023-01-23T09:09:10;101266.97;;;23.07;30.88
16100;BME280;8154;50.830;12.082;2023-01-23T09:11:36;101259.53;;;23.10;30.74
16100;BME280;8154;50.830;12.082;2023-01-23T09:14:02;101258.56;;;23.11;30.79
16100;BME280;8154;50.830;12.082;2023-01-23T09:16:29;101255.34;;;23.08;30.81
16100;BME280;8154;50.830;12.082;2023-01-23T09:18:55;101266.69;;;23.10;30.80
16100;BME280;8154;50.830;12.082;2023-01-23T09:21:21;101260.22;;;23.12;30.77
16100;BME280;8154;50.830;12.082;2023-01-23T09:23:47;101256.00;;;23.10;30.84
16100;BME280;8154;50.830;12.082;2023-01-23T09:26:14;101263.91;;;23.11;30.81
16100;BME280;8154;50.830;12.082;2023-01-23T09:28:41;101267.69;;;23.09;30.64
16100;BME280;8154;50.830;12.082;2023-01-23T09:31:10;101265.41;;;23.14;30.67
16100;BME280;8154;50.830;12.082;2023-01-23T09:33:37;101269.06;;;23.13;30.83
16100;BME280;8154;50.830;12.082;2023-01-23T09:36:04;101266.25;;;23.14;30.64
16100;BME280;8154;50.830;12.082;2023-01-23T09:38:32;101266.25;;;23.14;30.81
16100;BME280;8154;50.830;12.082;2023-01-23T09:40:59;101260.78;;;23.16;30.87
16100;BME280;8154;50.830;12.082;2023-01-23T09:46:23;101269.13;;;23.21;30.56
16100;BME280;8154;50.830;12.082;2023-01-23T09:48:58;101269.44;;;23.18;30.70
16100;BME280;8154;50.830;12.082;2023-01-23T09:51:35;101277.59;;;23.16;30.68
16100;BME280;8154;50.830;12.082;2023-01-23T09:54:47;101264.09;;;23.18;30.70
16100;BME280;8154;50.830;12.082;2023-01-23T09:57:32;101254.28;;;23.18;30.78
16100;BME280;8154;50.830;12.082;2023-01-23T10:00:05;101250.31;;;23.22;30.58
16100;BME280;8154;50.830;12.082;2023-01-23T10:02:36;101248.50;;;23.23;30.66
16100;BME280;8154;50.830;12.082;2023-01-23T10:05:03;101252.72;;;23.25;30.42
16100;BME280;8154;50.830;12.082;2023-01-23T10:18:21;101248.66;;;23.21;30.83
16100;BME280;8154;50.830;12.082;2023-01-23T10:21:00;101246.13;;;23.20;30.56
16100;BME280;8154;50.830;12.082;2023-01-23T10:23:40;101249.47;;;23.31;30.62
16100;BME280;8154;50.830;12.082;2023-01-23T10:26:18;101257.47;;;23.49;30.39
16100;BME280;8154;50.830;12.082;2023-01-23T10:28:45;101254.03;;;23.39;30.37
16100;BME280;8154;50.830;12.082;2023-01-23T10:39:17;101251.00;;;23.24;30.46
16100;BME280;8154;50.830;12.082;2023-01-23T10:41:46;101246.56;;;23.25;30.42
16100;BME280;8154;50.830;12.082;2023-01-23T10:44:15;101253.13;;;23.21;30.65
16100;BME280;8154;50.830;12.082;2023-01-23T10:46:48;101249.50;;;23.22;30.77
16100;BME280;8154;50.830;12.082;2023-01-23T10:49:29;101249.50;;;23.22;30.52
16100;BME280;8154;50.830;12.082;2023-01-23T10:51:57;101244.84;;;23.24;30.70
16100;BME280;8154;50.830;12.082;2023-01-23T10:54:24;101237.81;;;23.23;30.53
16100;BME280;8154;50.830;12.082;2023-01-23T10:56:58;101234.03;;;23.25;30.85
16100;BME280;8154;50.830;12.082;2023-01-23T10:59:28;101242.88;;;23.26;30.51
16100;BME280;8154;50.830;12.082;2023-01-23T11:01:57;101246.41;;;23.26;30.61
16100;BME280;8154;50.830;12.082;2023-01-23T11:04:27;101256.22;;;23.26;30.51
16100;BME280;8154;50.830;12.082;2023-01-23T11:07:23;101252.56;;;23.27;30.44
16100;BME280;8154;50.830;12.082;2023-01-23T11:12:27;101260.84;;;23.24;30.79
16100;BME280;8154;50.830;12.082;2023-01-23T11:15:34;101266.59;;;23.29;30.63
16100;BME280;8154;50.830;12.082;2023-01-23T11:18:01;101264.09;;;23.27;30.65
16100;BME280;8154;50.830;12.082;2023-01-23T11:25:45;101262.13;;;23.29;30.38
16100;BME280;8154;50.830;12.082;2023-01-23T11:28:33;101250.91;;;23.26;30.67
16100;BME280;8154;50.830;12.082;2023-01-23T11:34:13;101261.00;;;23.22;30.75
16100;BME280;8154;50.830;12.082;2023-01-23T11:36:55;101271.16;;;23.19;30.63
16100;BME280;8154;50.830;12.082;2023-01-23T11:41:59;101257.91;;;23.27;30.67
16100;BME280;8154;50.830;12.082;2023-01-23T12:45:55;101221.41;;;23.45;30.30
16100;BME280;8154;50.830;12.082;2023-01-23T12:48:34;101224.69;;;23.39;30.32
16100;BME280;8154;50.830;12.082;2023-01-23T12:51:31;101226.88;;;23.26;30.65
16100;BME280;8154;50.830;12.082;2023-01-23T12:53:59;101226.88;;;23.26;30.62
16100;BME280;8154;50.830;12.082;2023-01-23T12:56:30;101219.88;;;23.25;30.67
16100;BME280;8154;50.830;12.082;2023-01-23T12:59:06;101224.91;;;23.28;30.65
16100;BME280;8154;50.830;12.082;2023-01-23T13:10:28;101226.31;;;23.22;30.73
16100;BME280;8154;50.830;12.082;2023-01-23T13:13:18;101218.31;;;23.22;30.58
16100;BME280;8154;50.830;12.082;2023-01-23T13:16:08;101221.44;;;23.18;30.57
16100;BME280;8154;50.830;12.082;2023-01-23T13:18:36;101223.44;;;23.16;30.74
16100;BME280;8154;50.830;12.082;2023-01-23T13:21:21;101217.78;;;23.19;30.57
16100;BME280;8154;50.830;12.082;2023-01-23T13:24:42;101229.66;;;23.24;30.55
16100;BME280;8154;50.830;12.082;2023-01-23T13:27:44;101222.81;;;23.22;30.52
16100;BME280;8154;50.830;12.082;2023-01-23T13:32:48;101217.34;;;23.23;30.71
16100;BME280;8154;50.830;12.082;2023-01-23T13:43:53;101234.81;;;23.35;30.51
16100;BME280;8154;50.830;12.082;2023-01-23T14:46:04;101242.41;;;22.86;31.25
16100;BME280;8154;50.830;12.082;2023-01-23T14:48:36;101242.25;;;22.87;31.11
16100;BME280;8154;50.830;12.082;2023-01-23T14:51:24;101243.41;;;22.85;31.19
16100;BME280;8154;50.830;12.082;2023-01-23T14:54:02;101248.19;;;22.81;31.32
16100;BME280;8154;50.830;12.082;2023-01-23T14:56:32;101242.31;;;22.77;31.27
16100;BME280;8154;50.830;12.082;2023-01-23T14:59:02;101240.19;;;22.81;31.26
16100;BME280;8154;50.830;12.082;2023-01-23T15:01:29;101244.94;;;22.87;31.28
16100;BME280;8154;50.830;12.082;2023-01-23T15:04:05;101236.06;;;22.87;31.33
16100;BME280;8154;50.830;12.082;2023-01-23T15:06:33;101245.78;;;22.88;31.18
16100;BME280;8154;50.830;12.082;2023-01-23T15:09:13;101243.78;;;22.90;31.25
16100;BME280;8154;50.830;12.082;2023-01-23T15:11:41;101235.94;;;22.88;31.12
16100;BME280;8154;50.830;12.082;2023-01-23T15:14:35;101241.56;;;22.85;31.32
16100;BME280;8154;50.830;12.082;2023-01-23T15:17:06;101245.66;;;22.80;31.25
16100;BME280;8154;50.830;12.082;2023-01-23T15:19:38;101241.34;;;22.79;31.41
16100;BME280;8154;50.830;12.082;2023-01-23T15:22:19;101244.97;;;22.77;31.30
16100;BME280;8154;50.830;12.082;2023-01-23T15:24:47;101247.19;;;22.82;31.26
16100;BME280;8154;50.830;12.082;2023-01-23T15:27:30;101250.72;;;22.83;31.36
16100;BME280;8154;50.830;12.082;2023-01-23T15:32:59;101246.53;;;22.80;31.26
16100;BME280;8154;50.830;12.082;2023-01-23T15:35:34;101243.47;;;22.75;31.16
16100;BME280;8154;50.830;12.082;2023-01-23T15:38:01;101250.03;;;22.71;31.32
16100;BME280;8154;50.830;12.082;2023-01-23T15:40:31;101257.91;;;22.72;31.30
16100;BME280;8154;50.830;12.082;2023-01-23T15:43:12;101250.75;;;22.73;31.34
16100;BME280;8154;50.830;12.082;2023-01-23T15:45:39;101247.53;;;22.69;31.44
16100;BME280;8154;50.830;12.082;2023-01-23T18:45:24;101340.97;;;22.68;31.47
16100;BME280;8154;50.830;12.082;2023-01-23T18:47:50;101344.59;;;22.77;31.20
16100;BME280;8154;50.830;12.082;2023-01-23T18:50:18;101349.78;;;22.78;31.27
16100;BME280;8154;50.830;12.082;2023-01-23T18:53:09;101341.50;;;22.81;31.28
16100;BME280;8154;50.830;12.082;2023-01-23T18:59:22;101342.94;;;22.76;31.31
16100;BME280;8154;50.830;12.082;2023-01-23T19:01:52;101348.28;;;22.76;31.06
16100;BME280;8154;50.830;12.082;2023-01-23T19:04:31;101349.53;;;22.71;31.22
16100;BME280;8154;50.830;12.082;2023-01-23T19:06:59;101360.03;;;22.73;31.22
16100;BME280;8154;50.830;12.082;2023-01-23T19:09:26;101346.56;;;22.74;31.34
16100;BME280;8154;50.830;12.082;2023-01-23T19:20:41;101354.41;;;22.76;31.24
16100;BME280;8154;50.830;12.082;2023-01-23T19:23:17;101351.47;;;22.79;31.19
16100;BME280;8154;50.830;12.082;2023-01-23T19:25:47;101350.50;;;22.80;31.17
16100;BME280;8154;50.830;12.082;2023-01-23T19:28:14;101366.78;;;22.77;31.09
16100;BME280;8154;50.830;12.082;2023-01-23T19:30:40;101368.75;;;22.75;31.12
16100;BME280;8154;50.830;12.082;2023-01-23T19:33:15;101369.84;;;22.82;31.23
16100;BME280;8154;50.830;12.082;2023-01-23T19:35:43;101362.97;;;22.80;31.25
16100;BME280;8154;50.830;12.082;2023-01-23T19:38:09;101369.00;;;22.82;31.09
16100;BME280;8154;50.830;12.082;2023-01-23T20:39:10;101364.53;;;22.72;31.23
16100;BME280;8154;50.830;12.082;2023-01-23T20:41:37;101360.34;;;22.70;31.21
16100;BME280;8154;50.830;12.082;2023-01-23T20:44:03;101364.28;;;22.76;31.18
16100;BME280;8154;50.830;12.082;2023-01-23T20:46:29;101363.97;;;22.79;31.14
16100;BME280;8154;50.830;12.082;2023-01-23T20:48:55;101369.97;;;22.81;31.17
16100;BME280;8154;50.830;12.082;2023-01-23T20:51:24;101364.34;;;22.84;31.23
16100;BME280;8154;50.830;12.082;2023-01-23T20:53:51;101365.06;;;22.86;31.06
16100;BME280;8154;50.830;12.082;2023-01-23T20:56:19;101362.69;;;22.83;31.06
16100;BME280;8154;50.830;12.082;2023-01-23T20:58:48;101364.34;;;22.84;31.03
16100;BME280;8154;50.830;12.082;2023-01-23T21:01:35;101361.84;;;22.82;31.00
16100;BME280;8154;50.830;12.082;2023-01-23T21:04:21;101359.59;;;22.77;31.13
16100;BME280;8154;50.830;12.082;2023-01-23T21:06:47;101361.00;;;22.82;31.20
16100;BME280;8154;50.830;12.082;2023-01-23T21:09:14;101361.00;;;22.82;31.15
16100;BME280;8154;50.830;12.082;2023-01-23T21:11:40;101358.34;;;22.82;30.99
16100;BME280;8154;50.830;12.082;2023-01-23T21:14:09;101364.06;;;22.87;30.95
16100;BME280;8154;50.830;12.082;2023-01-23T21:16:35;101363.38;;;22.85;30.91
16100;BME280;8154;50.830;12.082;2023-01-23T21:19:01;101364.75;;;22.89;31.09
16100;BME280;8154;50.830;12.082;2023-01-23T21:21:27;101359.78;;;23.13;30.70
16100;BME280;8154;50.830;12.082;2023-01-23T21:23:54;101371.50;;;23.20;30.27
16100;BME280;8154;50.830;12.082;2023-01-23T21:26:23;101369.50;;;22.95;30.78
16100;BME280;8154;50.830;12.082;2023-01-23T21:28:51;101366.06;;;22.85;30.96
16100;BME280;8154;50.830;12.082;2023-01-23T21:31:23;101358.34;;;22.82;31.06
16100;BME280;8154;50.830;12.082;2023-01-23T21:33:50;101364.13;;;22.77;30.96
16100;BME280;8154;50.830;12.082;2023-01-23T21:36:19;101373.78;;;22.78;31.00
16100;BME280;8154;50.830;12.082;2023-01-23T21:38:45;101377.72;;;22.74;31.07
16100;BME280;8154;50.830;12.082;2023-01-23T23:41:05;101361.78;;;22.36;31.48
16100;BME280;8154;50.830;12.082;2023-01-23T23:43:31;101360.41;;;22.32;31.56
16100;BME280;8154;50.830;12.082;2023-01-23T23:45:59;101361.63;;;22.37;31.46
16100;BME280;8154;50.830;12.082;2023-01-23T23:48:27;101357.31;;;22.36;31.58
16100;BME280;8154;50.830;12.082;2023-01-23T23:50:54;101358.97;;;22.37;31.42
16100;BME280;8154;50.830;12.082;2023-01-23T23:53:21;101362.63;;;22.36;31.39
16100;BME280;8154;50.830;12.082;2023-01-23T23:55:47;101366.00;;;22.38;31.37
16100;BME280;8154;50.830;12.082;2023-01-23T23:58:14;101366.81;;;22.39;31.41
